Time;durP1;ratioP1;P1;durP2;ratioP2;P2;SDS_P1;SDS_P2;PMS_P1;PMS_P2;Temp;Humidity;BMP_temperature;BMP_pressure;BME280_temperature;BME280_humidity;BME280_pressure;Samples;Min_cycle;Max_cycle;Signal;HPM_P1;HPM_P2
2022/06/25 00:01:11;;;;;;;0.52;0.40;;;;;;;-148.56;100.00;61375.16;5003096;28;20022;-33
2022/06/25 00:03:36;;;;;;;0.28;0.28;;;;;;;-148.56;100.00;61375.16;5008339;28;20737;-34
2022/06/25 00:06:02;;;;;;;0.40;0.40;;;;;;;-148.56;100.00;61375.16;5009340;28;20108;-34
2022/06/25 00:08:28;;;;;;;0.20;0.20;;;;;;;-148.56;100.00;61375.16;5007695;28;20143;-34
2022/06/25 00:10:53;;;;;;;0.35;0.35;;;;;;;-148.56;100.00;61375.16;5007379;28;20507;-33
2022/06/25 00:13:19;;;;;;;0.50;0.30;;;;;;;-148.56;100.00;61375.16;5009077;28;20084;-35
2022/06/25 00:15:44;;;;;;;1.27;0.52;;;;;;;-148.56;100.00;61375.16;5008992;28;20071;-35
2022/06/25 00:18:10;;;;;;;0.30;0.30;;;;;;;-148.56;100.00;61375.16;5005832;28;20037;-33
2022/06/25 00:20:36;;;;;;;0.40;0.30;;;;;;;-148.56;100.00;61375.16;5007838;28;20112;-36
2022/06/25 00:23:01;;;;;;;0.70;0.50;;;;;;;-148.56;100.00;61375.16;5005984;28;20032;-35
2022/06/25 00:25:27;;;;;;;0.40;0.30;;;;;;;-148.56;100.00;61375.16;5005097;28;20476;-34
2022/06/25 00:27:52;;;;;;;1.17;0.40;;;;;;;-148.56;100.00;61375.16;5007000;28;20106;-36
2022/06/25 00:30:18;;;;;;;0.40;0.40;;;;;;;-148.56;100.00;61375.16;5008750;28;20034;-34
2022/06/25 00:32:44;;;;;;;0.45;0.40;;;;;;;-148.56;100.00;61375.16;5005897;28;20018;-34
2022/06/25 00:35:09;;;;;;;0.77;0.40;;;;;;;-148.56;100.00;61375.16;5003549;28;20034;-38
2022/06/25 00:37:35;;;;;;;0.63;0.32;;;;;;;-148.56;100.00;61375.16;5010552;28;20030;-31
2022/06/25 00:40:00;;;;;;;0.40;0.40;;;;;;;-148.56;100.00;61375.16;5007965;28;20034;-34
2022/06/25 00:42:26;;;;;;;0.30;0.30;;;;;;;-148.56;100.00;61375.16;4999831;28;20037;-34
2022/06/25 00:44:53;;;;;;;0.73;0.47;;;;;;;-148.56;100.00;61375.16;5007107;28;20022;-36
2022/06/25 00:47:19;;;;;;;0.30;0.30;;;;;;;-148.56;100.00;61375.16;5010571;28;20034;-31
2022/06/25 00:49:44;;;;;;;0.55;0.30;;;;;;;-148.56;100.00;61375.16;5008135;28;20037;-36
2022/06/25 00:52:28;;;;;;;0.50;0.40;;;;;;;-148.56;100.00;61375.16;5005368;28;20033;-35
2022/06/25 00:54:56;;;;;;;0.28;0.28;;;;;;;-148.56;100.00;61375.16;4997167;28;20130;-35
2022/06/25 00:57:26;;;;;;;1.00;0.40;;;;;;;-148.56;100.00;61375.16;5003756;28;20043;-34
2022/06/25 00:59:52;;;;;;;0.30;0.30;;;;;;;-148.56;100.00;61375.16;5010028;28;20034;-34
2022/06/25 01:02:18;;;;;;;0.73;0.40;;;;;;;-148.56;100.00;61375.16;5007549;28;20021;-35
2022/06/25 01:04:43;;;;;;;0.40;0.40;;;;;;;-148.56;100.00;61375.16;5010137;28;20934;-33
2022/06/25 01:07:09;;;;;;;0.30;0.30;;;;;;;-148.56;100.00;61375.16;5009056;28;20121;-36
2022/06/25 01:09:35;;;;;;;0.38;0.38;;;;;;;-148.56;100.00;61375.16;5010131;28;20559;-35
2022/06/25 01:12:00;;;;;;;0.45;0.40;;;;;;;-148.56;100.00;61375.16;4991290;28;20031;-33
2022/06/25 01:14:26;;;;;;;0.45;0.30;;;;;;;-148.56;100.00;61375.16;5011216;28;20060;-32
2022/06/25 01:16:51;;;;;;;0.22;0.20;;;;;;;-148.56;100.00;61375.16;5010063;28;20041;-35
2022/06/25 01:19:17;;;;;;;0.75;0.30;;;;;;;-148.56;100.00;61375.16;5011989;28;20029;-32
2022/06/25 01:21:42;;;;;;;0.20;0.20;;;;;;;-148.56;100.00;61375.16;5007313;28;20641;-33
2022/06/25 01:24:08;;;;;;;0.38;0.35;;;;;;;-148.56;100.00;61375.16;5010871;28;20037;-37
2022/06/25 01:26:34;;;;;;;0.35;0.35;;;;;;;-148.56;100.00;61375.16;5010585;28;20029;-33
2022/06/25 01:29:00;;;;;;;1.65;0.30;;;;;;;-148.56;100.00;61375.16;5012045;28;20021;-36
2022/06/25 01:31:26;;;;;;;1.05;0.50;;;;;;;-148.56;100.00;61375.16;5008596;28;20040;-33
2022/06/25 01:33:51;;;;;;;0.35;0.32;;;;;;;-148.56;100.00;61375.16;5011300;28;20022;-34
2022/06/25 01:36:16;;;;;;;0.30;0.30;;;;;;;-148.56;100.00;61375.16;5008909;28;20081;-32
2022/06/25 01:38:42;;;;;;;0.35;0.30;;;;;;;-148.56;100.00;61375.16;5014221;28;20026;-34
2022/06/25 01:41:07;;;;;;;0.52;0.50;;;;;;;-148.56;100.00;61375.16;5009278;28;20056;-34
2022/06/25 01:43:33;;;;;;;0.38;0.30;;;;;;;-148.56;100.00;61375.16;5013472;28;20029;-33
2022/06/25 01:45:58;;;;;;;0.40;0.40;;;;;;;-148.56;100.00;61375.16;5006625;28;20484;-31
2022/06/25 01:48:24;;;;;;;0.50;0.30;;;;;;;-148.56;100.00;61375.16;5006655;28;20091;-36
2022/06/25 01:50:49;;;;;;;0.32;0.32;;;;;;;-148.56;100.00;61375.16;5011117;28;20025;-32
2022/06/25 01:53:14;;;;;;;0.38;0.38;;;;;;;-148.56;100.00;61375.16;5010550;28;20784;-30
2022/06/25 01:55:40;;;;;;;0.75;0.40;;;;;;;-148.56;100.00;61375.16;5010211;28;20026;-33
2022/06/25 01:58:05;;;;;;;0.60;0.40;;;;;;;-148.56;100.00;61375.16;5012574;28;20064;-34
2022/06/25 02:00:31;;;;;;;0.32;0.32;;;;;;;-148.56;100.00;61375.16;5006078;28;20448;-32
2022/06/25 02:02:56;;;;;;;0.60;0.40;;;;;;;-148.56;100.00;61375.16;5009223;28;20108;-34
2022/06/25 02:08:11;;;;;;;0.45;0.35;;;;;;;-148.56;100.00;61375.16;5011455;28;21057;-35
2022/06/25 02:10:36;;;;;;;0.60;0.30;;;;;;;-148.56;100.00;61375.16;5010511;28;20073;-37
2022/06/25 02:13:01;;;;;;;0.68;0.20;;;;;;;-148.56;100.00;61375.16;5012407;28;20429;-37
2022/06/25 02:15:27;;;;;;;0.40;0.40;;;;;;;-148.56;100.00;61375.16;5007806;28;20040;-35
2022/06/25 02:17:52;;;;;;;0.57;0.50;;;;;;;-148.56;100.00;61375.16;5013901;28;20064;-36
2022/06/25 02:20:18;;;;;;;0.30;0.30;;;;;;;-148.56;100.00;61375.16;5006757;28;20492;-32
2022/06/25 02:22:43;;;;;;;0.30;0.30;;;;;;;-148.56;100.00;61375.16;5005883;28;20033;-34
2022/06/25 02:25:09;;;;;;;0.30;0.30;;;;;;;-148.56;100.00;61375.16;5006150;28;20036;-34
2022/06/25 02:27:34;;;;;;;1.85;0.52;;;;;;;-148.56;100.00;61375.16;5005847;28;23379;-34
2022/06/25 02:29:59;;;;;;;0.40;0.40;;;;;;;-148.56;100.00;61375.16;5010433;28;20711;-33
2022/06/25 02:32:25;;;;;;;0.38;0.30;;;;;;;-148.56;100.00;61375.16;5009834;28;20041;-37
2022/06/25 02:34:50;;;;;;;0.52;0.43;;;;;;;-148.56;100.00;61375.16;5008143;28;20083;-33
2022/06/25 02:37:16;;;;;;;0.30;0.30;;;;;;;-148.56;100.00;61375.16;5008906;28;20755;-34
2022/06/25 02:39:41;;;;;;;0.60;0.30;;;;;;;-148.56;100.00;61375.16;5009295;28;20029;-34
2022/06/25 02:42:07;;;;;;;0.30;0.30;;;;;;;-148.56;100.00;61375.16;5010884;28;20938;-35
2022/06/25 02:44:32;;;;;;;0.30;0.30;;;;;;;-148.56;100.00;61375.16;5009536;28;20686;-35
2022/06/25 02:46:57;;;;;;;1.10;0.40;;;;;;;-148.56;100.00;61375.16;5007845;28;20026;-34
2022/06/25 02:49:23;;;;;;;0.40;0.30;;;;;;;-148.56;100.00;61375.16;5007367;28;20037;-32
2022/06/25 02:51:48;;;;;;;0.38;0.30;;;;;;;-148.56;100.00;61375.16;5007197;28;20068;-37
2022/06/25 02:54:14;;;;;;;0.30;0.30;;;;;;;-148.56;100.00;61375.16;5008857;28;20483;-37
2022/06/25 02:59:23;;;;;;;0.20;0.20;;;;;;;-148.56;100.00;61375.16;5012373;28;20142;-35
2022/06/25 03:01:49;;;;;;;0.20;0.20;;;;;;;-148.56;100.00;61375.16;5005520;28;20497;-31
2022/06/25 03:04:14;;;;;;;0.15;0.15;;;;;;;-148.56;100.00;61375.16;5006562;28;20068;-34
2022/06/25 03:06:40;;;;;;;0.63;0.40;;;;;;;-148.56;100.00;61375.16;5010311;28;20025;-37
2022/06/25 03:09:05;;;;;;;0.82;0.30;;;;;;;-148.56;100.00;61375.16;5010008;28;20547;-35
2022/06/25 03:11:31;;;;;;;0.32;0.30;;;;;;;-148.56;100.00;61375.16;5006145;28;20037;-36
2022/06/25 03:13:56;;;;;;;0.65;0.40;;;;;;;-148.56;100.00;61375.16;5006419;28;20941;-35
2022/06/25 03:16:22;;;;;;;0.20;0.20;;;;;;;-148.56;100.00;61375.16;5005668;28;20034;-37
2022/06/25 03:18:49;;;;;;;0.30;0.30;;;;;;;-148.56;100.00;61375.16;5007504;28;20044;-36
2022/06/25 03:21:14;;;;;;;0.38;0.30;;;;;;;-148.56;100.00;61375.16;5010752;28;20029;-36
2022/06/25 03:23:39;;;;;;;1.08;0.30;;;;;;;-148.56;100.00;61375.16;5009989;28;20605;-34
2022/06/25 03:26:05;;;;;;;0.30;0.30;;;;;;;-148.56;100.00;61375.16;5009240;28;20044;-39
2022/06/25 03:28:30;;;;;;;0.40;0.35;;;;;;;-148.56;100.00;61375.16;5008262;28;20033;-36
2022/06/25 03:30:56;;;;;;;0.57;0.30;;;;;;;-148.56;100.00;61375.16;5008363;28;20041;-34
2022/06/25 03:33:22;;;;;;;1.08;0.30;;;;;;;-148.56;100.00;61375.16;5010244;28;20044;-34
2022/06/25 03:35:47;;;;;;;0.30;0.25;;;;;;;-148.56;100.00;61375.16;5010500;28;20025;-37
2022/06/25 03:38:12;;;;;;;0.40;0.40;;;;;;;-148.56;100.00;61375.16;5007364;28;20100;-35
2022/06/25 03:40:38;;;;;;;0.40;0.30;;;;;;;-148.56;100.00;61375.16;5008777;28;20355;-37
2022/06/25 03:43:03;;;;;;;0.50;0.25;;;;;;;-148.56;100.00;61375.16;5011512;28;20494;-33
2022/06/25 03:45:28;;;;;;;0.50;0.30;;;;;;;-148.56;100.00;61375.16;5009393;28;20026;-33
2022/06/25 03:47:54;;;;;;;0.30;0.30;;;;;;;-148.56;100.00;61375.16;5006964;28;20060;-34
2022/06/25 03:50:20;;;;;;;0.45;0.40;;;;;;;-148.56;100.00;61375.16;5005357;28;20030;-36
2022/06/25 03:52:46;;;;;;;0.15;0.15;;;;;;;-148.56;100.00;61375.16;5011000;28;20037;-33
2022/06/25 03:55:12;;;;;;;0.20;0.20;;;;;;;-148.56;100.00;61375.16;5006960;28;20056;-36
2022/06/25 03:57:37;;;;;;;0.35;0.20;;;;;;;-148.56;100.00;61375.16;5008161;28;20029;-31
2022/06/25 04:00:04;;;;;;;0.17;0.17;;;;;;;-148.56;100.00;61375.16;5005352;28;20658;-30
2022/06/25 04:02:29;;;;;;;0.20;0.20;;;;;;;-148.56;100.00;61375.16;5006952;28;20033;-35
2022/06/25 04:04:54;;;;;;;0.20;0.20;;;;;;;-148.56;100.00;61375.16;5009716;28;20056;-35
2022/06/25 04:07:20;;;;;;;0.30;0.30;;;;;;;-148.56;100.00;61375.16;5006844;28;20065;-38
2022/06/25 04:09:45;;;;;;;0.30;0.30;;;;;;;-148.56;100.00;61375.16;5009842;28;20037;-34
2022/06/25 04:12:11;;;;;;;0.30;0.30;;;;;;;-148.56;100.00;61375.16;5003880;28;20036;-34
2022/06/25 04:14:37;;;;;;;0.28;0.25;;;;;;;-148.56;100.00;61375.16;5008725;28;20034;-37
2022/06/25 04:17:03;;;;;;;0.30;0.30;;;;;;;-148.56;100.00;61375.16;5006822;28;20115;-34
2022/06/25 04:19:28;;;;;;;0.30;0.30;;;;;;;-148.56;100.00;61375.16;5004340;28;20048;-30
2022/06/25 04:21:54;;;;;;;0.63;0.30;;;;;;;-148.56;100.00;61375.16;5002273;28;20030;-35
2022/06/25 04:24:19;;;;;;;0.30;0.30;;;;;;;-148.56;100.00;61375.16;5008994;28;20576;-36
2022/06/25 04:26:44;;;;;;;0.43;0.30;;;;;;;-148.56;100.00;61375.16;5008398;28;20870;-33
2022/06/25 04:29:10;;;;;;;0.30;0.30;;;;;;;-148.56;100.00;61375.16;5008565;28;20038;-34
2022/06/25 04:31:36;;;;;;;0.40;0.30;;;;;;;-148.56;100.00;61375.16;5006056;28;20411;-34
2022/06/25 04:34:02;;;;;;;0.30;0.30;;;;;;;-148.56;100.00;61375.16;5011288;28;20029;-31
2022/06/25 04:36:28;;;;;;;0.30;0.30;;;;;;;-148.56;100.00;61375.16;5009222;28;20537;-35
2022/06/25 04:38:53;;;;;;;0.30;0.30;;;;;;;-148.56;100.00;61375.16;5008777;28;20709;-36
2022/06/25 04:41:19;;;;;;;0.20;0.20;;;;;;;-148.56;100.00;61375.16;5010730;28;20040;-35
2022/06/25 04:43:44;;;;;;;0.20;0.20;;;;;;;-148.56;100.00;61375.16;5012290;28;20690;-33
2022/06/25 04:46:09;;;;;;;0.80;0.40;;;;;;;-148.56;100.00;61375.16;5013856;28;20030;-36
2022/06/25 04:48:35;;;;;;;0.30;0.30;;;;;;;-148.56;100.00;61375.16;5012621;28;20473;-34
2022/06/25 04:51:00;;;;;;;0.47;0.20;;;;;;;-148.56;100.00;61375.16;5008118;28;20026;-34
2022/06/25 04:53:25;;;;;;;0.20;0.20;;;;;;;-148.56;100.00;61375.16;5010642;28;20107;-31
2022/06/25 04:55:51;;;;;;;0.32;0.32;;;;;;;-148.56;100.00;61375.16;5013944;28;20033;-33
2022/06/25 04:58:16;;;;;;;0.65;0.30;;;;;;;-148.56;100.00;61375.16;5014218;28;20038;-32
2022/06/25 05:00:42;;;;;;;0.90;0.40;;;;;;;-148.56;100.00;61375.16;5012494;28;20410;-33
2022/06/25 05:03:08;;;;;;;1.65;0.55;;;;;;;-148.56;100.00;61375.16;5010814;28;20037;-33
2022/06/25 05:05:33;;;;;;;0.20;0.20;;;;;;;-148.56;100.00;61375.16;5013392;28;20036;-34
2022/06/25 05:07:59;;;;;;;0.20;0.20;;;;;;;-148.56;100.00;61375.16;5013190;28;20033;-33
2022/06/25 05:10:24;;;;;;;0.30;0.20;;;;;;;-148.56;100.00;61375.16;5014415;28;20030;-31
2022/06/25 05:15:35;;;;;;;0.80;0.30;;;;;;;-148.56;100.00;61375.16;5009749;28;20095;-36
2022/06/25 05:18:00;;;;;;;0.20;0.15;;;;;;;-148.56;100.00;61375.16;5013588;28;20021;-33
2022/06/25 05:20:26;;;;;;;0.50;0.20;;;;;;;-148.56;100.00;61375.16;5012111;28;20045;-34
2022/06/25 05:22:51;;;;;;;0.63;0.30;;;;;;;-148.56;100.00;61375.16;5008685;28;20042;-31
2022/06/25 05:25:17;;;;;;;0.40;0.30;;;;;;;-148.56;100.00;61375.16;5008559;28;20038;-37
2022/06/25 05:27:42;;;;;;;0.60;0.28;;;;;;;-148.56;100.00;61375.16;5007860;28;20034;-33
2022/06/25 05:30:07;;;;;;;0.60;0.20;;;;;;;-148.56;100.00;61375.16;5007482;28;20021;-34
2022/06/25 05:32:33;;;;;;;0.70;0.30;;;;;;;-148.56;100.00;61375.16;5013861;28;20045;-35
2022/06/25 05:34:59;;;;;;;0.45;0.35;;;;;;;-148.56;100.00;61375.16;5006745;28;20116;-36
2022/06/25 05:37:24;;;;;;;0.55;0.30;;;;;;;-148.56;100.00;61375.16;4985185;28;20065;-34
2022/06/25 05:39:50;;;;;;;0.32;0.32;;;;;;;-148.56;100.00;61375.16;4992205;28;20122;-37
2022/06/25 05:42:16;;;;;;;0.20;0.20;;;;;;;-148.56;100.00;61375.16;4988691;28;20509;-37
2022/06/25 05:44:43;;;;;;;0.35;0.30;;;;;;;-148.56;100.00;61375.16;4990723;28;20041;-35
2022/06/25 05:47:09;;;;;;;0.30;0.30;;;;;;;-148.56;100.00;61375.16;4993708;28;20785;-34
2022/06/25 05:49:34;;;;;;;0.22;0.20;;;;;;;-148.56;100.00;61375.16;4991802;28;20037;-37
2022/06/25 05:52:00;;;;;;;0.45;0.38;;;;;;;-148.56;100.00;61375.16;4990137;28;20099;-36
2022/06/25 05:54:25;;;;;;;0.10;0.10;;;;;;;-148.56;100.00;61375.16;5008399;28;20029;-36
2022/06/25 05:56:50;;;;;;;0.28;0.20;;;;;;;-148.56;100.00;61375.16;5004558;28;20743;-34
2022/06/25 05:59:16;;;;;;;0.75;0.32;;;;;;;-148.56;100.00;61375.16;5007818;28;20099;-36
2022/06/25 06:01:41;;;;;;;0.20;0.20;;;;;;;-148.56;100.00;61375.16;5010164;28;20044;-31
2022/06/25 06:04:07;;;;;;;0.30;0.30;;;;;;;-148.56;100.00;61375.16;5006913;28;20036;-39
2022/06/25 06:06:32;;;;;;;0.30;0.30;;;;;;;-148.56;100.00;61375.16;5008822;28;20397;-32
2022/06/25 06:08:57;;;;;;;0.20;0.20;;;;;;;-148.56;100.00;61375.16;5010868;28;20041;-34
2022/06/25 06:11:23;;;;;;;0.20;0.20;;;;;;;-148.56;100.00;61375.16;5010705;28;20138;-35
2022/06/25 06:13:48;;;;;;;0.20;0.20;;;;;;;-148.56;100.00;61375.16;5010736;28;20036;-31
2022/06/25 06:16:14;;;;;;;0.30;0.13;;;;;;;-148.56;100.00;61375.16;5009932;28;20040;-36
2022/06/25 06:18:39;;;;;;;0.52;0.30;;;;;;;-148.56;100.00;61375.16;5008475;28;20104;-36
2022/06/25 06:21:04;;;;;;;0.30;0.30;;;;;;;-148.56;100.00;61375.16;5009571;28;20033;-31
2022/06/25 06:23:30;;;;;;;0.17;0.17;;;;;;;-148.56;100.00;61375.16;5005428;28;20037;-34
2022/06/25 06:25:55;;;;;;;0.30;0.30;;;;;;;-148.56;100.00;61375.16;5010477;28;20752;-34
2022/06/25 06:28:20;;;;;;;0.30;0.30;;;;;;;-148.56;100.00;61375.16;5011544;28;20033;-32
2022/06/25 06:30:46;;;;;;;1.55;0.40;;;;;;;-148.56;100.00;61375.16;5006847;28;20097;-36
2022/06/25 06:33:12;;;;;;;0.20;0.20;;;;;;;-148.56;100.00;61375.16;5012007;28;20547;-34
2022/06/25 06:35:37;;;;;;;0.30;0.30;;;;;;;-148.56;100.00;61375.16;5007278;28;20034;-37
2022/06/25 06:38:03;;;;;;;0.20;0.20;;;;;;;-148.56;100.00;61375.16;5013058;28;20779;-33
2022/06/25 06:40:28;;;;;;;0.63;0.40;;;;;;;-148.56;100.00;61375.16;5008833;28;20561;-35
2022/06/25 06:42:55;;;;;;;0.80;0.40;;;;;;;-148.56;100.00;61375.16;5010981;28;20446;-35
2022/06/25 06:45:21;;;;;;;0.30;0.30;;;;;;;-148.56;100.00;61375.16;5014951;28;20169;-31
2022/06/25 06:47:46;;;;;;;0.70;0.40;;;;;;;-148.56;100.00;61375.16;5012074;28;20030;-38
2022/06/25 06:50:12;;;;;;;0.30;0.30;;;;;;;-148.56;100.00;61375.16;5007509;28;20101;-33
2022/06/25 06:52:38;;;;;;;0.32;0.20;;;;;;;-148.56;100.00;61375.16;5001653;28;20026;-36
2022/06/25 06:55:04;;;;;;;0.50;0.30;;;;;;;-148.56;100.00;61375.16;4976393;28;20858;-36
2022/06/25 06:57:33;;;;;;;0.52;0.22;;;;;;;-148.56;100.00;61375.16;4984074;28;21166;-29
2022/06/25 06:59:58;;;;;;;0.20;0.20;;;;;;;-148.56;100.00;61375.16;4975428;28;20033;-35
2022/06/25 07:02:25;;;;;;;0.55;0.30;;;;;;;-148.56;100.00;61375.16;4970412;28;20096;-37
2022/06/25 07:04:52;;;;;;;0.43;0.28;;;;;;;-148.56;100.00;61375.16;4968054;28;20117;-36
2022/06/25 07:07:17;;;;;;;0.30;0.30;;;;;;;-148.56;100.00;61375.16;4963138;28;20048;-36
2022/06/25 07:09:43;;;;;;;0.20;0.20;;;;;;;-148.56;100.00;61375.16;4958186;28;20095;-38
2022/06/25 07:12:08;;;;;;;0.40;0.40;;;;;;;-148.56;100.00;61375.16;4962520;28;20045;-36
2022/06/25 07:14:34;;;;;;;0.20;0.20;;;;;;;-148.56;100.00;61375.16;4960184;28;20057;-34
2022/06/25 07:16:59;;;;;;;0.20;0.20;;;;;;;-148.56;100.00;61375.16;4962762;28;20033;-36
2022/06/25 07:19:25;;;;;;;0.30;0.30;;;;;;;-148.56;100.00;61375.16;4964686;28;20090;-30
2022/06/25 07:21:50;;;;;;;0.30;0.30;;;;;;;-148.56;100.00;61375.16;4970099;28;20032;-33
2022/06/25 07:24:16;;;;;;;0.30;0.30;;;;;;;-148.56;100.00;61375.16;4967406;28;22035;-34
2022/06/25 07:26:41;;;;;;;0.30;0.30;;;;;;;-148.56;100.00;61375.16;4963346;28;20660;-34
2022/06/25 07:29:07;;;;;;;0.22;0.22;;;;;;;-148.56;100.00;61375.16;4966208;28;20037;-38
2022/06/25 07:31:32;;;;;;;0.57;0.30;;;;;;;-148.56;100.00;61375.16;4963215;28;20559;-33
2022/06/25 07:33:58;;;;;;;0.20;0.20;;;;;;;-148.56;100.00;61375.16;4972450;28;20033;-33
2022/06/25 07:36:23;;;;;;;0.43;0.25;;;;;;;-148.56;100.00;61375.16;4963285;28;20166;-32
2022/06/25 07:38:48;;;;;;;0.20;0.13;;;;;;;-148.56;100.00;61375.16;4965735;28;20044;-33
2022/06/25 07:41:14;;;;;;;0.30;0.30;;;;;;;-148.56;100.00;61375.16;4970039;28;20957;-35
2022/06/25 07:43:39;;;;;;;0.40;0.40;;;;;;;-148.56;100.00;61375.16;4971850;28;20048;-37
2022/06/25 07:46:05;;;;;;;0.82;0.47;;;;;;;-148.56;100.00;61375.16;4963006;28;20038;-33
2022/06/25 07:48:30;;;;;;;0.40;0.40;;;;;;;-148.56;100.00;61375.16;4961465;28;20037;-36
2022/06/25 07:53:40;;;;;;;1.48;0.30;;;;;;;-148.56;100.00;61375.16;4992897;28;20547;-37
2022/06/25 07:56:06;;;;;;;0.20;0.20;;;;;;;-148.56;100.00;61375.16;5010729;28;20021;-32
2022/06/25 07:58:31;;;;;;;1.05;0.40;;;;;;;-148.56;100.00;61375.16;5010697;28;20083;-33
2022/06/25 08:00:57;;;;;;;0.20;0.20;;;;;;;-148.56;100.00;61375.16;5007821;28;20033;-31
2022/06/25 08:03:22;;;;;;;0.20;0.20;;;;;;;-148.56;100.00;61375.16;5010028;28;20099;-35
2022/06/25 08:05:47;;;;;;;0.50;0.30;;;;;;;-148.56;100.00;61375.16;5007110;28;20025;-34
2022/06/25 08:08:13;;;;;;;0.43;0.43;;;;;;;-148.56;100.00;61375.16;5009090;28;20086;-36
2022/06/25 08:10:40;;;;;;;0.32;0.30;;;;;;;-148.56;100.00;61375.16;5010012;28;20127;-33
2022/06/25 08:13:05;;;;;;;0.63;0.30;;;;;;;-148.56;100.00;61375.16;5007114;28;20029;-33
2022/06/25 08:15:31;;;;;;;0.30;0.30;;;;;;;-148.56;100.00;61375.16;5006020;28;20033;-32
2022/06/25 08:17:56;;;;;;;0.30;0.20;;;;;;;-148.56;100.00;61375.16;5007960;28;20034;-32
2022/06/25 08:20:22;;;;;;;0.32;0.30;;;;;;;-148.56;100.00;61375.16;5008531;28;20041;-32
2022/06/25 08:22:48;;;;;;;0.47;0.40;;;;;;;-148.56;100.00;61375.16;5003747;28;20990;-33
2022/06/25 08:25:14;;;;;;;0.50;0.30;;;;;;;-148.56;100.00;61375.16;5006832;28;20033;-38
2022/06/25 08:27:50;;;;;;;0.38;0.30;;;;;;;-148.56;100.00;61375.16;5006868;28;20032;-36
2022/06/25 08:30:18;;;;;;;0.30;0.30;;;;;;;-148.56;100.00;61375.16;5010773;28;20029;-32
2022/06/25 08:32:44;;;;;;;0.30;0.30;;;;;;;-148.56;100.00;61375.16;5004544;28;20503;-32
2022/06/25 08:35:09;;;;;;;0.20;0.20;;;;;;;-148.56;100.00;61375.16;5005497;28;20041;-34
2022/06/25 08:37:38;;;;;;;0.13;0.13;;;;;;;-148.56;100.00;61375.16;5007855;28;20022;-33
2022/06/25 08:40:07;;;;;;;0.10;0.10;;;;;;;-148.56;100.00;61375.16;5007081;28;20053;-33
2022/06/25 08:42:32;;;;;;;0.20;0.20;;;;;;;-148.56;100.00;61375.16;5007039;28;20022;-33
2022/06/25 08:44:58;;;;;;;0.88;0.32;;;;;;;-148.56;100.00;61375.16;5007091;28;20909;-32
2022/06/25 08:47:23;;;;;;;0.30;0.30;;;;;;;-148.56;100.00;61375.16;5012704;28;20041;-34
2022/06/25 08:49:49;;;;;;;0.20;0.20;;;;;;;-148.56;100.00;61375.16;5002429;28;20034;-33
2022/06/25 08:52:15;;;;;;;0.63;0.20;;;;;;;-148.56;100.00;61375.16;5005236;28;20499;-34
2022/06/25 08:54:41;;;;;;;0.20;0.20;;;;;;;-148.56;100.00;61375.16;5008945;28;20036;-35
2022/06/25 08:57:08;;;;;;;0.30;0.30;;;;;;;-148.56;100.00;61375.16;5007969;28;20022;-36
2022/06/25 08:59:34;;;;;;;0.55;0.30;;;;;;;-148.56;100.00;61375.16;5005945;28;20034;-33
2022/06/25 09:01:59;;;;;;;0.45;0.30;;;;;;;-148.56;100.00;61375.16;5004975;28;20551;-33
2022/06/25 09:04:25;;;;;;;0.20;0.20;;;;;;;-148.56;100.00;61375.16;5007377;28;20036;-37
2022/06/25 09:06:50;;;;;;;0.25;0.25;;;;;;;-148.56;100.00;61375.16;5008182;28;20076;-36
2022/06/25 09:09:16;;;;;;;0.22;0.22;;;;;;;-148.56;100.00;61375.16;5008896;28;20054;-36
2022/06/25 09:11:48;;;;;;;0.38;0.28;;;;;;;-148.56;100.00;61375.16;5007112;28;20021;-33
2022/06/25 09:14:28;;;;;;;0.30;0.30;;;;;;;-148.56;100.00;61375.16;5007549;28;20533;-33
2022/06/25 09:16:57;;;;;;;0.30;0.25;;;;;;;-148.56;100.00;61375.16;5003242;28;20025;-35
2022/06/25 09:19:30;;;;;;;0.52;0.40;;;;;;;-148.56;100.00;61375.16;5007974;28;20033;-34
2022/06/25 09:21:56;;;;;;;0.30;0.30;;;;;;;-148.56;100.00;61375.16;5008356;28;20044;-33
2022/06/25 09:24:22;;;;;;;0.30;0.30;;;;;;;-148.56;100.00;61375.16;5004429;28;20040;-30
2022/06/25 09:26:51;;;;;;;0.30;0.30;;;;;;;-148.56;100.00;61375.16;5010448;28;20030;-33
2022/06/25 09:29:16;;;;;;;0.30;0.30;;;;;;;-148.56;100.00;61375.16;5009682;28;20046;-33
2022/06/25 09:31:42;;;;;;;0.45;0.32;;;;;;;-148.56;100.00;61375.16;5008290;28;20045;-36
2022/06/25 09:34:08;;;;;;;0.57;0.40;;;;;;;-148.56;100.00;61375.16;5012532;28;20025;-32
2022/06/25 09:36:33;;;;;;;0.77;0.32;;;;;;;-148.56;100.00;61375.16;5011471;28;20079;-35
2022/06/25 09:38:59;;;;;;;0.65;0.30;;;;;;;-148.56;100.00;61375.16;5009571;28;20811;-39
2022/06/25 09:41:24;;;;;;;0.43;0.30;;;;;;;-148.56;100.00;61375.16;5010624;28;20796;-36
2022/06/25 09:43:51;;;;;;;0.75;0.30;;;;;;;-148.56;100.00;61375.16;5007560;28;20036;-37
2022/06/25 09:46:16;;;;;;;0.38;0.38;;;;;;;-148.56;100.00;61375.16;5009342;28;20046;-35
2022/06/25 09:48:42;;;;;;;0.30;0.30;;;;;;;-148.56;100.00;61375.16;5008680;28;20022;-31
2022/06/25 09:51:07;;;;;;;0.30;0.30;;;;;;;-148.56;100.00;61375.16;5009315;28;20021;-34
2022/06/25 09:53:33;;;;;;;0.20;0.20;;;;;;;-148.56;100.00;61375.16;5002681;28;20665;-35
2022/06/25 09:56:00;;;;;;;0.45;0.30;;;;;;;-148.56;100.00;61375.16;5009308;28;20850;-32
2022/06/25 09:58:25;;;;;;;0.75;0.30;;;;;;;-148.56;100.00;61375.16;5008219;28;20025;-37
2022/06/25 10:00:51;;;;;;;0.52;0.30;;;;;;;-148.56;100.00;61375.16;5012094;28;20951;-34
2022/06/25 10:03:16;;;;;;;0.40;0.30;;;;;;;-148.56;100.00;61375.16;4990125;28;20049;-33
2022/06/25 10:05:42;;;;;;;0.30;0.30;;;;;;;-148.56;100.00;61375.16;5010412;28;20021;-31
2022/06/25 10:08:09;;;;;;;0.68;0.40;;;;;;;-148.56;100.00;61375.16;5006072;28;20029;-34
2022/06/25 10:10:56;;;;;;;0.25;0.25;;;;;;;-148.56;100.00;61375.16;5022924;28;20036;-35
2022/06/25 10:13:22;;;;;;;0.40;0.40;;;;;;;-148.56;100.00;61375.16;5007596;28;20042;-33
2022/06/25 10:15:47;;;;;;;0.30;0.30;;;;;;;-148.56;100.00;61375.16;5008185;28;20068;-32
2022/06/25 10:18:13;;;;;;;0.30;0.30;;;;;;;-148.56;100.00;61375.16;5006923;28;20377;-33
2022/06/25 10:20:39;;;;;;;0.38;0.30;;;;;;;-148.56;100.00;61375.16;5009201;28;20029;-33
2022/06/25 10:23:05;;;;;;;0.20;0.20;;;;;;;-148.56;100.00;61375.16;5007349;28;20581;-31
2022/06/25 10:25:31;;;;;;;0.20;0.20;;;;;;;-148.56;100.00;61375.16;5005898;28;20028;-32
2022/06/25 10:28:11;;;;;;;0.40;0.22;;;;;;;-148.56;100.00;61375.16;5006698;28;20030;-36
2022/06/25 10:30:58;;;;;;;0.30;0.30;;;;;;;-148.56;100.00;61375.16;5007275;28;20051;-34
2022/06/25 10:33:27;;;;;;;0.63;0.30;;;;;;;-148.56;100.00;61375.16;5005611;28;20037;-33
2022/06/25 10:35:55;;;;;;;0.30;0.30;;;;;;;-148.56;100.00;61375.16;5007234;28;20061;-34
2022/06/25 10:38:22;;;;;;;0.20;0.20;;;;;;;-148.56;100.00;61375.16;5007217;28;20062;-33
2022/06/25 10:40:47;;;;;;;0.57;0.50;;;;;;;-148.56;100.00;61375.16;5009147;28;20026;-32
2022/06/25 10:43:38;;;;;;;0.68;0.40;;;;;;;-148.56;100.00;61375.16;5013008;28;20499;-36
2022/06/25 10:46:19;;;;;;;0.40;0.35;;;;;;;-148.56;100.00;61375.16;5008215;28;21073;-37
2022/06/25 10:49:07;;;;;;;0.28;0.28;;;;;;;-148.56;100.00;61375.16;5007858;28;20095;-35
2022/06/25 10:51:42;;;;;;;0.45;0.40;;;;;;;-148.56;100.00;61375.16;5007545;28;20086;-35
2022/06/25 10:54:12;;;;;;;0.98;0.40;;;;;;;-148.56;100.00;61375.16;5005529;28;20036;-34
2022/06/25 10:56:44;;;;;;;0.43;0.40;;;;;;;-148.56;100.00;61375.16;5009184;28;20070;-34
2022/06/25 10:59:09;;;;;;;0.45;0.32;;;;;;;-148.56;100.00;61375.16;5005970;28;20106;-36
2022/06/25 11:01:35;;;;;;;0.50;0.40;;;;;;;-148.56;100.00;61375.16;5009315;28;20768;-33
2022/06/25 11:04:02;;;;;;;0.75;0.30;;;;;;;-148.56;100.00;61375.16;5007952;28;20018;-36
2022/06/25 11:06:29;;;;;;;0.38;0.38;;;;;;;-148.56;100.00;61375.16;5002941;28;20041;-32
2022/06/25 11:08:55;;;;;;;0.40;0.30;;;;;;;-148.56;100.00;61375.16;5007147;28;20029;-38
2022/06/25 11:11:26;;;;;;;1.75;0.38;;;;;;;-148.56;100.00;61375.16;5005936;28;20076;-34
2022/06/25 11:13:52;;;;;;;0.80;0.30;;;;;;;-148.56;100.00;61375.16;4998697;28;20022;-34
2022/06/25 11:16:17;;;;;;;0.30;0.20;;;;;;;-148.56;100.00;61375.16;5006381;28;20121;-36